KHFD/HFD METAR and TAF weather

Enter ICAO airport designator
Station Type Date Time Source
KHFD METAR 2019/04/22 19:53 UTC NOAA

KHFD 221953Z 04008KT 10SM BKN060 OVC075 18/12 A2995 RMK AO2 RAB1857E19 SLP143 P0001 T01780117


Station Type Date Time Source
KHFD Decoded METAR 2019/04/22 19:53 UTC NOAA

HARTFORD-BRAINARD AIRPORT, CT, United States (KHFD) 41-44N 072-39W 4M
Apr 22, 2019 - 03:53 PM EDT / 2019.04.22 1953 UTC
Wind: from the NE (040 degrees) at 9 MPH (8 KT):0
Visibility: 10 mile(s):0
Sky conditions: overcast
Precipitation last hour: 0.01 inches
Temperature: 64.0 F (17.8 C)
Dew Point: 53.1 F (11.7 C)
Relative Humidity: 67%
Pressure (altimeter): 29.95 in. Hg (1014 hPa)
ob: KHFD 221953Z 04008KT 10SM BKN060 OVC075 18/12 A2995 RMK AO2 RAB1857E19 SLP143 P0001 T01780117
cycle: 20

Station Type Date Time Source
KHFD TAF UTC NOAA

Error!

Example: see airport list